KDSV/DSV METAR and TAF weather

Enter ICAO airport designator
Station Type Date Time Source
KDSV METAR 2018/12/12 22:54 UTC NOAA

KDSV 122254Z AUTO 14006KT 10SM CLR 01/M04 A3009 RMK AO2 SLP206 T00111044


Station Type Date Time Source
KDSV Decoded METAR 2018/12/12 22:54 UTC NOAA

DANSVILLE MUNICIPAL AIRPORT, NY, United States (KDSV) 42-34N 077-43W 198M
Dec 12, 2018 - 05:54 PM EST / 2018.12.12 2254 UTC
Wind: from the SE (140 degrees) at 7 MPH (6 KT):0
Visibility: 10 mile(s):0
Sky conditions: clear
Temperature: 34.0 F (1.1 C)
Windchill: 28 F (-2 C):1
Dew Point: 24.1 F (-4.4 C)
Relative Humidity: 66%
Pressure (altimeter): 30.09 in. Hg (1018 hPa)
ob: KDSV 122254Z AUTO 14006KT 10SM CLR 01/M04 A3009 RMK AO2 SLP206 T00111044
cycle: 23

Station Type Date Time Source
KDSV TAF UTC NOAA

Error!


Example: see airport list